Time;durP1;ratioP1;P1;durP2;ratioP2;P2;SDS_P1;SDS_P2;PMS_P1;PMS_P2;Temp;Humidity;BMP_temperature;BMP_pressure;BME280_temperature;BME280_humidity;BME280_pressure;Samples;Min_cycle;Max_cycle;Signal;HPM_P1;HPM_P2
2023/04/22 00:00:49;;;;;;;22.33;4.00;;;;;;;-144.73;59.18;54296.88;5031479;28;20032;-71
2023/04/22 00:03:17;;;;;;;13.30;3.88;;;;;;;-144.73;59.05;54313.28;5032807;28;20433;-71
2023/04/22 00:05:43;;;;;;;10.63;4.38;;;;;;;-144.73;59.21;54362.53;5045946;28;20123;-71
2023/04/22 00:08:09;;;;;;;6.53;3.92;;;;;;;-144.73;59.25;54358.44;5032594;28;20036;-71
2023/04/22 00:10:34;;;;;;;5.38;3.90;;;;;;;-144.73;59.46;54329.72;5057594;28;20037;-71
2023/04/22 00:12:59;;;;;;;12.43;4.38;;;;;;;-144.73;59.58;54327.66;5040773;28;20484;-71
2023/04/22 00:15:25;;;;;;;9.75;4.47;;;;;;;-144.73;59.69;54309.19;5034036;28;20025;-71
2023/04/22 00:17:52;;;;;;;12.27;3.85;;;;;;;-144.73;58.70;54325.59;5058339;28;20017;-71
2023/04/22 00:20:21;;;;;;;13.18;4.45;;;;;;;-144.73;59.15;54325.59;5031078;28;20111;-71
2023/04/22 00:22:47;;;;;;;9.88;4.30;;;;;;;-144.73;59.78;54317.38;5048771;28;20017;-71
2023/04/22 00:25:12;;;;;;;8.10;3.90;;;;;;;-144.73;58.96;54323.53;5031250;28;20086;-71
2023/04/22 00:27:37;;;;;;;10.68;4.07;;;;;;;-144.73;59.08;54337.91;5032051;28;20112;-71
2023/04/22 00:30:04;;;;;;;8.63;3.92;;;;;;;-144.73;58.79;54329.72;5031107;28;20029;-71
2023/04/22 00:32:29;;;;;;;15.93;5.35;;;;;;;-144.73;59.00;54313.28;5047280;28;20144;-71
2023/04/22 00:34:56;;;;;;;9.07;4.45;;;;;;;-144.73;59.07;54259.91;5049342;28;20112;-71
2023/04/22 00:37:22;;;;;;;12.18;4.85;;;;;;;-144.73;58.72;54276.34;5048804;28;20035;-71
2023/04/22 00:39:48;;;;;;;11.88;4.15;;;;;;;-144.73;58.98;54348.19;5033441;28;20036;-71
2023/04/22 00:42:14;;;;;;;6.57;3.72;;;;;;;-144.73;59.36;54292.75;5049690;28;20025;-71
2023/04/22 00:44:41;;;;;;;17.02;4.05;;;;;;;-144.73;59.04;54307.13;5031270;28;20033;-71
2023/04/22 00:47:07;;;;;;;9.57;4.28;;;;;;;-144.73;58.86;54296.88;5048588;28;20099;-71
2023/04/22 00:49:35;;;;;;;7.60;4.32;;;;;;;-144.73;58.63;54276.34;5048281;28;20571;-71
2023/04/22 00:52:00;;;;;;;12.02;4.47;;;;;;;-144.73;58.04;54346.13;5032623;28;20116;-71
2023/04/22 00:54:25;;;;;;;10.85;4.20;;;;;;;-144.73;57.94;54300.97;5049906;28;20112;-71
2023/04/22 00:56:51;;;;;;;12.68;4.28;;;;;;;-144.73;58.72;54313.28;5031661;28;20024;-72
2023/04/22 00:59:17;;;;;;;11.15;4.35;;;;;;;-144.73;58.79;54325.59;5047630;28;20021;-71
2023/04/22 01:01:43;;;;;;;11.52;4.25;;;;;;;-144.73;58.93;54358.44;5031910;28;20021;-71
2023/04/22 01:04:11;;;;;;;9.80;3.42;;;;;;;-144.73;58.91;54321.50;5049177;28;20033;-71
2023/04/22 01:06:38;;;;;;;10.10;3.75;;;;;;;-144.73;58.63;54325.59;5034867;28;20021;-71
2023/04/22 01:09:03;;;;;;;8.40;4.10;;;;;;;-144.73;59.05;54329.72;5047604;28;20022;-71
2023/04/22 01:11:29;;;;;;;9.93;4.10;;;;;;;-144.73;59.25;54317.38;5031165;28;20083;-71
2023/04/22 01:13:55;;;;;;;16.33;4.40;;;;;;;-144.73;59.33;54321.50;5032702;28;20013;-71
2023/04/22 01:16:21;;;;;;;7.88;3.88;;;;;;;-144.73;59.84;54342.03;5029118;28;20033;-71
2023/04/22 01:18:46;;;;;;;19.70;4.70;;;;;;;-144.73;59.32;54329.72;5031634;28;20032;-69
2023/04/22 01:21:12;;;;;;;11.40;5.00;;;;;;;-144.73;59.54;54346.13;5030972;28;20052;-70
2023/04/22 01:23:38;;;;;;;15.48;4.05;;;;;;;-144.73;59.28;54309.19;5049193;28;20049;-70
2023/04/22 01:26:04;;;;;;;9.55;4.85;;;;;;;-144.73;58.54;54358.44;5031278;28;20468;-71
2023/04/22 01:28:30;;;;;;;8.43;4.30;;;;;;;-144.73;58.96;54350.22;5048154;28;20032;-70
2023/04/22 01:30:56;;;;;;;14.20;5.22;;;;;;;-144.73;59.13;54288.66;5033881;28;20028;-72
2023/04/22 01:33:21;;;;;;;10.57;4.13;;;;;;;-144.73;59.46;54292.75;5034586;28;20024;-71
2023/04/22 01:35:46;;;;;;;12.75;4.60;;;;;;;-144.73;59.33;54284.56;5036324;28;20040;-70
2023/04/22 01:38:12;;;;;;;12.82;4.55;;;;;;;-144.73;59.96;54325.59;5038417;28;20021;-72
2023/04/22 01:40:38;;;;;;;6.03;3.38;;;;;;;-144.73;60.08;54342.03;5034230;28;20128;-71
2023/04/22 01:43:04;;;;;;;7.97;4.10;;;;;;;-144.73;59.55;54300.97;5035072;28;20052;-70
2023/04/22 01:45:30;;;;;;;15.77;4.20;;;;;;;-144.73;59.26;54333.81;5052036;28;20035;-71
2023/04/22 01:47:56;;;;;;;17.40;4.32;;;;;;;-144.73;60.06;54276.34;5052694;28;20046;-71
2023/04/22 01:50:22;;;;;;;16.90;4.40;;;;;;;-144.73;60.44;54307.13;5033788;28;20080;-70
2023/04/22 01:52:48;;;;;;;10.57;4.90;;;;;;;-144.73;60.57;54333.81;5034884;28;20038;-71
2023/04/22 01:55:14;;;;;;;8.95;3.90;;;;;;;-144.73;60.04;54335.88;5033877;28;20041;-71
2023/04/22 01:57:40;;;;;;;8.65;4.82;;;;;;;-144.73;61.14;54333.81;5035291;28;20021;-70
2023/04/22 02:00:07;;;;;;;12.07;5.15;;;;;;;-144.73;61.19;54346.13;5041822;28;20032;-71
2023/04/22 02:02:33;;;;;;;11.38;5.05;;;;;;;-144.73;60.61;54294.81;5042897;28;20029;-71
2023/04/22 02:04:58;;;;;;;10.82;4.35;;;;;;;-144.73;61.34;54325.59;5063909;28;20088;-71
2023/04/22 02:07:24;;;;;;;10.65;5.20;;;;;;;-144.73;60.71;54337.91;5041951;28;20060;-71
2023/04/22 02:09:50;;;;;;;11.20;4.50;;;;;;;-144.73;60.16;54325.59;5033458;28;20033;-71
2023/04/22 02:12:15;;;;;;;12.38;4.65;;;;;;;-144.73;60.76;54296.88;5051995;28;20025;-71
2023/04/22 02:14:40;;;;;;;11.73;4.82;;;;;;;-144.73;61.30;54317.38;5051254;28;20155;-71
2023/04/22 02:17:06;;;;;;;8.63;4.90;;;;;;;-144.73;61.02;54329.72;5034040;28;20099;-71
2023/04/22 02:19:31;;;;;;;10.80;4.80;;;;;;;-144.73;61.68;54329.72;5033121;28;20041;-71
2023/04/22 02:21:56;;;;;;;11.88;5.13;;;;;;;-144.73;61.46;54313.28;5031401;28;20041;-71
2023/04/22 02:24:22;;;;;;;8.88;5.07;;;;;;;-144.73;62.16;54321.50;5033652;28;20040;-71
2023/04/22 02:26:48;;;;;;;15.05;5.75;;;;;;;-144.73;62.17;54346.13;5034105;28;20021;-71
2023/04/22 02:29:13;;;;;;;12.32;4.97;;;;;;;-144.73;61.54;54337.91;5033386;28;20017;-70
2023/04/22 02:31:39;;;;;;;8.13;4.93;;;;;;;-144.73;62.50;54344.06;5036777;28;20112;-71
2023/04/22 02:34:04;;;;;;;11.68;4.88;;;;;;;-144.73;63.17;54276.34;5033979;28;20108;-71
2023/04/22 02:36:30;;;;;;;14.88;5.60;;;;;;;-144.73;63.28;54344.06;5051923;28;20056;-71
2023/04/22 02:38:56;;;;;;;9.40;5.10;;;;;;;-144.73;63.61;54319.44;5032754;28;20045;-70
2023/04/22 02:41:22;;;;;;;9.98;4.85;;;;;;;-144.73;64.39;54346.13;5050972;28;20071;-70
2023/04/22 02:43:47;;;;;;;13.50;5.30;;;;;;;-144.73;64.44;54313.28;5048079;28;20028;-71
2023/04/22 02:46:14;;;;;;;16.30;5.38;;;;;;;-144.73;63.83;54300.97;5051173;28;20044;-71
2023/04/22 02:48:40;;;;;;;9.75;4.80;;;;;;;-144.73;63.84;54337.91;5033503;28;20021;-71
2023/04/22 02:51:05;;;;;;;16.35;5.15;;;;;;;-144.73;64.24;54313.28;5050999;28;20047;-71
2023/04/22 02:53:31;;;;;;;8.35;5.20;;;;;;;-144.73;63.49;54362.53;5033174;28;20033;-70
2023/04/22 02:55:57;;;;;;;8.90;5.00;;;;;;;-144.73;63.82;54298.91;5033014;28;20144;-70
2023/04/22 02:58:23;;;;;;;18.48;5.85;;;;;;;-144.73;63.83;54300.97;5033091;28;20060;-71
2023/04/22 03:00:48;;;;;;;14.65;5.05;;;;;;;-144.73;63.92;54333.81;5033547;28;20063;-71
2023/04/22 03:03:14;;;;;;;11.70;5.93;;;;;;;-144.73;64.79;54329.72;5033726;28;20029;-71
2023/04/22 03:05:39;;;;;;;12.68;5.47;;;;;;;-144.73;63.73;54374.84;5032822;28;20084;-70
2023/04/22 03:08:05;;;;;;;17.95;6.03;;;;;;;-144.73;64.87;54313.28;5031527;28;20083;-71
2023/04/22 03:10:31;;;;;;;12.55;5.65;;;;;;;-144.73;65.01;54305.06;5053028;28;20036;-71
2023/04/22 03:12:57;;;;;;;10.25;5.50;;;;;;;-144.73;64.97;54346.13;5033929;28;20036;-71
2023/04/22 03:15:22;;;;;;;23.65;5.93;;;;;;;-144.73;64.53;54315.34;5032380;28;20033;-73
2023/04/22 03:17:48;;;;;;;12.23;6.15;;;;;;;-144.73;64.98;54317.38;5052197;28;20025;-70
2023/04/22 03:20:14;;;;;;;13.13;5.35;;;;;;;-144.73;64.20;54333.81;5041217;28;20073;-71
2023/04/22 03:22:39;;;;;;;9.57;5.28;;;;;;;-144.73;63.73;54292.75;5042361;28;20032;-71
2023/04/22 03:25:05;;;;;;;13.07;4.95;;;;;;;-144.73;64.01;54346.13;5036194;28;20108;-71
2023/04/22 03:27:31;;;;;;;11.70;5.15;;;;;;;-144.73;65.24;54321.50;5054074;28;20027;-71
2023/04/22 03:29:57;;;;;;;12.60;6.07;;;;;;;-144.73;65.05;54325.59;5049710;28;20033;-71
2023/04/22 03:32:22;;;;;;;18.25;6.13;;;;;;;-144.73;65.47;54317.38;5032872;28;20049;-71
2023/04/22 03:34:47;;;;;;;18.17;6.13;;;;;;;-144.73;66.22;54329.72;5032364;28;20044;-71
2023/04/22 03:37:12;;;;;;;14.68;5.93;;;;;;;-144.73;66.39;54278.41;5032619;28;20025;-70
2023/04/22 03:39:38;;;;;;;9.75;5.93;;;;;;;-144.73;66.21;54354.34;5031753;28;20032;-71
2023/04/22 03:42:03;;;;;;;14.15;5.95;;;;;;;-144.73;66.80;54300.97;5053567;28;20075;-70
2023/04/22 03:44:28;;;;;;;14.07;6.00;;;;;;;-144.73;66.86;54325.59;5031764;28;20057;-71
2023/04/22 03:46:54;;;;;;;13.95;6.20;;;;;;;-144.73;67.46;54358.44;5032761;28;20024;-70
2023/04/22 03:49:19;;;;;;;13.93;6.28;;;;;;;-144.73;67.24;54292.75;5031723;28;20041;-70
2023/04/22 03:51:45;;;;;;;11.88;5.90;;;;;;;-144.73;66.51;54333.81;5033123;28;20029;-69
2023/04/22 03:54:10;;;;;;;12.27;6.22;;;;;;;-144.73;66.52;54313.28;5030735;28;20472;-70
2023/04/22 03:56:35;;;;;;;12.27;6.25;;;;;;;-144.73;67.09;54337.91;5053143;28;20127;-70
2023/04/22 03:59:01;;;;;;;13.98;6.25;;;;;;;-144.73;67.39;54307.13;5055627;28;20032;-71
2023/04/22 04:01:26;;;;;;;16.17;6.95;;;;;;;-144.73;67.35;54325.59;5040097;28;20098;-70
2023/04/22 04:03:51;;;;;;;14.05;5.93;;;;;;;-144.73;67.42;54296.88;5039923;28;20036;-70
2023/04/22 04:06:17;;;;;;;14.55;6.93;;;;;;;-144.73;68.06;54303.03;5059031;28;20037;-70
2023/04/22 04:08:42;;;;;;;14.75;6.07;;;;;;;-144.73;67.10;54321.50;5034928;28;20036;-70
2023/04/22 04:11:08;;;;;;;13.90;7.18;;;;;;;-144.73;67.56;54321.50;5052176;28;20075;-70
2023/04/22 04:13:34;;;;;;;14.25;6.50;;;;;;;-144.73;68.40;54346.13;5050127;28;20171;-70
2023/04/22 04:15:59;;;;;;;10.98;6.18;;;;;;;-144.73;68.07;54300.97;5038334;28;20119;-71
2023/04/22 04:18:25;;;;;;;16.42;6.32;;;;;;;-144.73;67.39;54337.91;5052419;28;20465;-69
2023/04/22 04:20:51;;;;;;;12.20;7.35;;;;;;;-144.73;68.73;54313.28;5033380;28;20033;-71
2023/04/22 04:23:16;;;;;;;13.43;6.45;;;;;;;-144.73;68.87;54344.06;5033024;28;20040;-70
2023/04/22 04:25:42;;;;;;;27.92;7.32;;;;;;;-144.73;68.75;54288.66;5049699;28;20044;-70
2023/04/22 04:28:10;;;;;;;21.80;7.45;;;;;;;-144.73;67.95;54317.38;5050216;28;20025;-70
2023/04/22 04:30:36;;;;;;;14.63;6.35;;;;;;;-144.73;67.93;54321.50;5049432;28;20087;-70
2023/04/22 04:33:05;;;;;;;13.80;6.60;;;;;;;-144.73;67.30;54346.13;5032275;28;20568;-72
2023/04/22 04:35:36;;;;;;;15.57;6.85;;;;;;;-144.73;68.20;54329.72;5048312;28;20033;-71
2023/04/22 04:38:02;;;;;;;19.30;6.50;;;;;;;-144.73;68.76;54309.19;5032208;28;20033;-70
2023/04/22 04:40:28;;;;;;;19.85;7.10;;;;;;;-144.73;68.05;54325.59;5031362;28;20044;-71
2023/04/22 04:42:54;;;;;;;11.57;6.55;;;;;;;-144.73;67.44;54311.22;5052478;28;20053;-71
2023/04/22 04:45:21;;;;;;;14.52;6.30;;;;;;;-144.73;67.28;54317.38;5031808;28;20476;-71
2023/04/22 04:47:49;;;;;;;12.07;6.88;;;;;;;-144.73;68.38;54309.19;5032407;28;20025;-71
2023/04/22 04:50:15;;;;;;;16.85;6.22;;;;;;;-144.73;68.02;54342.03;5049122;28;20039;-71
2023/04/22 04:52:41;;;;;;;13.20;6.38;;;;;;;-144.73;68.35;54325.59;5032583;28;20037;-71
2023/04/22 04:55:07;;;;;;;13.32;7.15;;;;;;;-144.73;66.85;54305.06;5033473;28;20112;-71
2023/04/22 04:57:32;;;;;;;18.23;8.27;;;;;;;-144.73;67.44;54350.22;5031185;28;20051;-71
2023/04/22 04:59:57;;;;;;;22.23;6.95;;;;;;;-144.73;66.88;54329.72;5031052;28;20061;-71
2023/04/22 05:02:23;;;;;;;12.55;7.28;;;;;;;-144.73;66.51;54358.44;5032133;28;20051;-70
2023/04/22 05:04:48;;;;;;;16.73;7.30;;;;;;;-144.73;67.05;54305.06;5048778;28;20033;-71
2023/04/22 05:07:13;;;;;;;10.13;6.38;;;;;;;-144.73;67.02;54300.97;5034801;28;20021;-71
2023/04/22 05:09:39;;;;;;;15.70;7.82;;;;;;;-144.73;67.18;54319.44;5031935;28;20515;-71
2023/04/22 05:12:04;;;;;;;13.68;6.50;;;;;;;-144.73;66.93;54296.88;5053461;28;20060;-71
2023/04/22 05:14:30;;;;;;;10.85;6.90;;;;;;;-144.73;65.84;54350.22;5037452;28;20052;-70
2023/04/22 05:16:55;;;;;;;15.50;7.88;;;;;;;-144.73;65.36;54337.91;5035728;28;20025;-70
2023/04/22 05:19:21;;;;;;;17.83;6.88;;;;;;;-144.73;65.66;54342.03;5037676;28;20061;-71
2023/04/22 05:21:46;;;;;;;20.45;7.88;;;;;;;-144.73;66.68;54282.50;5039739;28;20053;-70
2023/04/22 05:24:11;;;;;;;11.68;7.00;;;;;;;-144.73;66.15;54300.97;5029922;28;20033;-70
2023/04/22 05:26:37;;;;;;;17.30;7.88;;;;;;;-144.73;65.24;54358.44;5047609;28;20047;-70
2023/04/22 05:29:02;;;;;;;13.75;7.38;;;;;;;-144.73;64.96;54329.72;5032309;28;20024;-71
2023/04/22 05:31:28;;;;;;;17.70;7.30;;;;;;;-144.73;64.35;54346.13;5032661;28;20056;-71
2023/04/22 05:33:53;;;;;;;16.80;7.53;;;;;;;-144.73;64.19;54292.75;5038011;28;20028;-71
2023/04/22 05:36:19;;;;;;;14.23;7.22;;;;;;;-144.73;64.22;54325.59;5033918;28;20091;-71
2023/04/22 05:38:44;;;;;;;12.77;7.00;;;;;;;-144.73;63.77;54350.22;5034820;28;20045;-71
2023/04/22 05:41:09;;;;;;;11.25;6.43;;;;;;;-144.73;64.21;54317.38;5034327;28;20033;-70
2023/04/22 05:43:35;;;;;;;13.93;7.25;;;;;;;-144.73;63.91;54362.53;5037568;28;20032;-70
2023/04/22 05:46:00;;;;;;;23.70;7.13;;;;;;;-144.73;62.77;54333.81;5034757;28;20108;-71
2023/04/22 05:48:26;;;;;;;19.42;6.95;;;;;;;-144.73;63.49;54300.97;5034734;28;20064;-71
2023/04/22 05:50:53;;;;;;;17.00;7.47;;;;;;;-144.73;62.42;54329.72;5034073;28;20141;-71
2023/04/22 05:53:18;;;;;;;12.70;7.00;;;;;;;-144.73;62.13;54337.91;5052481;28;20029;-72
2023/04/22 05:55:43;;;;;;;15.02;7.05;;;;;;;-144.73;61.72;54354.34;5034104;28;20120;-71
2023/04/22 05:58:09;;;;;;;10.18;6.78;;;;;;;-144.73;62.24;54337.91;5052536;28;20025;-71
2023/04/22 06:00:34;;;;;;;15.88;7.93;;;;;;;-144.73;62.20;54342.03;5051348;28;20090;-71
2023/04/22 06:02:59;;;;;;;14.32;7.72;;;;;;;-144.73;60.88;54333.81;5034619;28;20033;-71
2023/04/22 06:05:25;;;;;;;13.27;7.43;;;;;;;-144.73;61.63;54305.06;5036744;28;20033;-71
2023/04/22 06:07:50;;;;;;;17.55;7.35;;;;;;;-144.73;61.59;54358.44;5034645;28;20016;-71
2023/04/22 06:10:15;;;;;;;21.38;7.85;;;;;;;-144.73;61.03;54317.38;5051853;28;20514;-71
2023/04/22 06:12:41;;;;;;;16.55;8.02;;;;;;;-144.73;60.26;54337.91;5035156;28;20059;-70
2023/04/22 06:15:07;;;;;;;16.40;7.32;;;;;;;-144.73;60.06;54337.91;5034110;28;20120;-71
2023/04/22 06:17:32;;;;;;;16.00;7.50;;;;;;;-144.73;60.26;54309.19;5051040;28;20111;-72
2023/04/22 06:19:57;;;;;;;11.85;7.20;;;;;;;-144.73;60.09;54342.03;5051524;28;20095;-71
2023/04/22 06:22:22;;;;;;;12.98;6.57;;;;;;;-144.73;59.68;54296.88;5052188;28;20033;-71
2023/04/22 06:24:48;;;;;;;15.15;6.93;;;;;;;-144.73;59.20;54354.34;5033504;28;20033;-71
2023/04/22 06:27:13;;;;;;;14.68;7.40;;;;;;;-144.73;59.20;54294.81;5034443;28;20113;-72
2023/04/22 06:29:38;;;;;;;14.45;7.55;;;;;;;-144.73;59.00;54337.91;5033180;28;20039;-71
2023/04/22 06:32:04;;;;;;;25.08;8.18;;;;;;;-144.73;58.85;54329.72;5052000;28;20025;-71
2023/04/22 06:34:29;;;;;;;16.38;7.35;;;;;;;-144.73;58.46;54321.50;5033897;28;20033;-71
2023/04/22 06:36:54;;;;;;;14.93;7.72;;;;;;;-144.73;57.73;54309.19;5033282;28;20112;-71
2023/04/22 06:39:20;;;;;;;14.38;7.35;;;;;;;-144.73;57.13;54307.13;5038208;28;20033;-71
2023/04/22 06:41:45;;;;;;;13.32;7.07;;;;;;;-144.73;57.19;54337.91;5061687;28;20032;-71
2023/04/22 06:44:11;;;;;;;17.00;7.93;;;;;;;-144.73;57.46;54329.72;5036386;28;20108;-72
2023/04/22 06:46:37;;;;;;;15.02;6.97;;;;;;;-144.73;57.56;54333.81;5050880;28;20048;-71
2023/04/22 06:49:03;;;;;;;18.17;7.13;;;;;;;-144.73;57.34;54305.06;5033460;28;20124;-71
2023/04/22 06:51:28;;;;;;;16.35;7.15;;;;;;;-144.73;56.69;54342.03;5033458;28;20068;-72
2023/04/22 06:53:53;;;;;;;12.43;7.32;;;;;;;-144.73;56.01;54329.72;5036486;28;20021;-70
2023/04/22 06:56:19;;;;;;;13.93;7.32;;;;;;;-144.73;56.67;54319.44;5033318;28;20387;-71
2023/04/22 06:58:44;;;;;;;13.82;7.30;;;;;;;-144.73;56.15;54313.28;5051733;28;20032;-70
2023/04/22 07:01:09;;;;;;;18.88;7.70;;;;;;;-144.73;55.79;54348.19;5035506;28;20029;-70
2023/04/22 07:03:35;;;;;;;18.00;6.93;;;;;;;-144.73;56.59;54319.44;5033309;28;20029;-71
2023/04/22 07:06:00;;;;;;;17.05;7.85;;;;;;;-144.73;56.04;54284.56;5050526;28;20032;-70
2023/04/22 07:08:25;;;;;;;15.10;7.35;;;;;;;-144.73;55.24;54366.66;5050853;28;20104;-71
2023/04/22 07:10:51;;;;;;;15.43;8.18;;;;;;;-144.73;54.92;54317.38;5050303;28;20040;-71
2023/04/22 07:13:16;;;;;;;20.88;7.38;;;;;;;-144.73;55.72;54321.50;5051112;28;20127;-71
2023/04/22 07:15:42;;;;;;;16.45;8.05;;;;;;;-144.73;55.22;54321.50;5032254;28;20043;-71
2023/04/22 07:18:07;;;;;;;23.67;8.18;;;;;;;-144.73;55.03;54288.66;5033024;28;20028;-71
2023/04/22 07:20:32;;;;;;;21.05;8.05;;;;;;;-144.73;54.93;54366.66;5049763;28;20044;-71
2023/04/22 07:22:58;;;;;;;14.73;7.32;;;;;;;-144.73;54.95;54342.03;5035671;28;20021;-71
2023/04/22 07:25:23;;;;;;;13.88;7.22;;;;;;;-144.73;54.20;54305.06;5032744;28;20033;-71
2023/04/22 07:27:49;;;;;;;20.85;6.93;;;;;;;-144.73;54.77;54288.66;5050346;28;20027;-71
2023/04/22 07:30:14;;;;;;;11.48;6.93;;;;;;;-144.73;54.17;54300.97;5031641;28;20167;-70
2023/04/22 07:32:40;;;;;;;13.02;6.72;;;;;;;-144.73;53.59;54292.75;5032477;28;20017;-70
2023/04/22 07:35:05;;;;;;;15.00;6.80;;;;;;;-144.73;52.89;54305.06;5037599;28;20128;-69
2023/04/22 07:37:31;;;;;;;16.95;7.72;;;;;;;-144.73;52.84;54296.88;5024865;28;20024;-69
2023/04/22 07:39:56;;;;;;;18.65;7.18;;;;;;;-144.73;53.41;54292.75;5031157;28;20063;-69
2023/04/22 07:42:22;;;;;;;17.63;7.32;;;;;;;-144.73;53.03;54276.34;5028711;28;20118;-70
2023/04/22 07:44:47;;;;;;;18.05;7.00;;;;;;;-144.73;52.40;54284.56;5026298;28;20040;-69
2023/04/22 07:47:12;;;;;;;18.05;8.02;;;;;;;-144.73;51.87;54305.06;5021636;28;20048;-70
2023/04/22 07:49:37;;;;;;;18.70;8.30;;;;;;;-144.73;51.80;54286.59;5050222;28;20116;-69
2023/04/22 07:52:03;;;;;;;14.32;6.38;;;;;;;-144.73;51.62;54255.81;5029667;28;20039;-69
2023/04/22 07:54:28;;;;;;;20.35;7.75;;;;;;;-144.73;51.24;54259.91;5029997;28;20147;-70
2023/04/22 07:56:53;;;;;;;21.60;7.63;;;;;;;-144.73;51.01;54305.06;5033114;28;20041;-70
2023/04/22 07:59:20;;;;;;;15.07;7.28;;;;;;;-144.73;50.81;54296.88;5029203;28;20063;-70
2023/04/22 08:01:45;;;;;;;12.10;6.07;;;;;;;-144.73;50.25;54231.19;5026223;28;20032;-69
2023/04/22 08:04:11;;;;;;;14.45;7.38;;;;;;;-144.73;50.27;54243.50;5042151;28;20040;-69
2023/04/22 08:06:36;;;;;;;14.43;7.00;;;;;;;-144.73;50.08;54257.88;5025282;28;20021;-70
2023/04/22 08:09:02;;;;;;;21.52;7.25;;;;;;;-144.73;50.39;54284.56;5025206;28;20040;-70
2023/04/22 08:11:27;;;;;;;17.15;7.13;;;;;;;-144.73;50.30;54243.50;5028510;28;20009;-70
2023/04/22 08:13:52;;;;;;;16.63;6.90;;;;;;;-144.73;50.23;54247.59;5025148;28;20113;-71
2023/04/22 08:16:18;;;;;;;15.90;6.78;;;;;;;-144.73;50.23;54278.41;5024970;28;20095;-70
2023/04/22 08:18:43;;;;;;;14.55;7.38;;;;;;;-144.73;50.64;54245.56;5024172;28;20022;-70
2023/04/22 08:21:09;;;;;;;17.95;7.75;;;;;;;-144.73;50.61;54276.34;5023062;28;20029;-69
2023/04/22 08:23:35;;;;;;;23.25;7.25;;;;;;;-144.73;50.06;54296.88;5025802;28;20033;-69
2023/04/22 08:26:00;;;;;;;15.40;7.07;;;;;;;-144.73;49.03;54284.56;5024545;28;20044;-69
2023/04/22 08:28:25;;;;;;;17.70;6.55;;;;;;;-144.73;49.58;54259.91;5029936;28;20021;-69
2023/04/22 08:30:51;;;;;;;13.07;6.80;;;;;;;-144.73;49.72;54325.59;5051183;28;20101;-69
2023/04/22 08:33:17;;;;;;;18.55;7.38;;;;;;;-144.73;50.07;54276.34;5049325;28;20426;-70
2023/04/22 08:35:43;;;;;;;20.25;7.18;;;;;;;-144.73;50.22;54292.75;5043222;28;20037;-69
2023/04/22 08:38:08;;;;;;;14.93;6.38;;;;;;;-144.73;49.22;54259.91;5033878;28;20029;-69
2023/04/22 08:40:34;;;;;;;14.93;6.40;;;;;;;-144.73;48.64;54305.06;5025847;28;20041;-70
2023/04/22 08:43:00;;;;;;;16.65;6.82;;;;;;;-144.73;48.20;54276.34;5030278;28;20542;-70
2023/04/22 08:45:25;;;;;;;14.35;7.18;;;;;;;-144.73;47.81;54288.66;5027849;28;20044;-70
2023/04/22 08:47:53;;;;;;;14.45;6.60;;;;;;;-144.73;46.91;54259.91;5029401;28;20090;-70
2023/04/22 08:50:24;;;;;;;10.27;6.95;;;;;;;-144.73;47.21;54264.03;5046397;28;20040;-70
2023/04/22 08:52:49;;;;;;;15.02;6.63;;;;;;;-144.73;46.83;54222.97;5045030;28;20028;-69
2023/04/22 08:55:15;;;;;;;14.90;6.57;;;;;;;-144.73;46.76;54225.03;5046025;28;20048;-71
2023/04/22 08:57:41;;;;;;;12.88;6.60;;;;;;;-144.73;46.60;54229.13;5046609;28;20021;-70
2023/04/22 09:00:08;;;;;;;16.02;6.63;;;;;;;-144.73;46.26;54247.59;5046377;28;20110;-70
2023/04/22 09:02:36;;;;;;;14.77;6.60;;;;;;;-144.73;46.45;54313.28;5046694;28;20101;-70
2023/04/22 09:05:04;;;;;;;15.55;7.15;;;;;;;-144.73;47.57;54292.75;5048637;28;20033;-70
2023/04/22 09:07:31;;;;;;;15.30;7.00;;;;;;;-144.73;47.46;54276.34;5046932;28;20013;-70
2023/04/22 09:09:57;;;;;;;16.65;6.60;;;;;;;-144.73;47.46;54300.97;5028266;28;20438;-70
2023/04/22 09:12:24;;;;;;;14.52;6.43;;;;;;;-144.73;47.60;54342.03;5029285;28;20044;-69
2023/04/22 09:14:50;;;;;;;15.95;6.63;;;;;;;-144.73;46.60;54231.19;5044301;28;20033;-69
2023/04/22 09:17:17;;;;;;;13.18;6.85;;;;;;;-144.73;46.80;54247.59;5027480;28;20029;-69
2023/04/22 09:19:43;;;;;;;22.02;6.82;;;;;;;-144.73;45.77;54268.13;5040162;28;20043;-70
2023/04/22 09:22:14;;;;;;;19.88;6.45;;;;;;;-144.73;46.40;54231.19;5036845;28;20051;-70
2023/04/22 09:24:50;;;;;;;16.90;6.50;;;;;;;-144.73;45.70;54288.66;5036799;28;20047;-70
2023/04/22 09:27:16;;;;;;;14.88;6.13;;;;;;;-144.73;45.47;54220.94;5034771;28;20024;-70
2023/04/22 09:29:51;;;;;;;11.30;5.88;;;;;;;-144.73;44.95;54247.59;5036394;28;20033;-70
2023/04/22 09:32:17;;;;;;;11.35;5.55;;;;;;;-144.73;44.82;54276.34;5029072;28;20705;-70
2023/04/22 09:34:51;;;;;;;9.18;5.68;;;;;;;-144.73;43.66;54264.03;5054192;28;20112;-71
2023/04/22 09:37:23;;;;;;;16.02;5.75;;;;;;;-144.73;44.15;54280.44;5032788;28;20044;-70
2023/04/22 09:39:50;;;;;;;12.85;5.78;;;;;;;-144.73;44.37;54231.19;5029917;28;20037;-70
2023/04/22 09:42:17;;;;;;;16.30;6.10;;;;;;;-144.73;44.47;54276.34;5028689;28;20075;-70
2023/04/22 09:44:45;;;;;;;8.30;4.90;;;;;;;-144.73;43.91;54247.59;5027013;28;20056;-70
2023/04/22 09:47:11;;;;;;;12.40;5.43;;;;;;;-144.73;43.82;54218.88;5028716;28;20021;-70
2023/04/22 09:49:40;;;;;;;11.57;6.00;;;;;;;-144.73;43.73;54227.09;5027697;28;20025;-70
2023/04/22 09:52:05;;;;;;;15.05;6.65;;;;;;;-144.73;43.37;54276.34;5044521;28;20083;-70
2023/04/22 09:54:31;;;;;;;16.52;5.55;;;;;;;-144.73;42.97;54243.50;5045202;28;20330;-70
2023/04/22 09:56:56;;;;;;;13.80;5.53;;;;;;;-144.73;43.35;54235.28;5045257;28;20031;-69
2023/04/22 09:59:27;;;;;;;14.95;6.03;;;;;;;-144.73;43.13;54268.13;5027871;28;20055;-70
2023/04/22 10:01:59;;;;;;;20.85;6.03;;;;;;;-144.73;43.91;54243.50;5045816;28;20028;-69
2023/04/22 10:04:25;;;;;;;14.85;5.63;;;;;;;-144.73;43.15;54342.03;5022366;28;20025;-70
2023/04/22 10:06:52;;;;;;;10.35;5.97;;;;;;;-144.73;42.96;54231.19;5046852;28;20043;-70
2023/04/22 10:09:19;;;;;;;13.90;5.70;;;;;;;-144.73;42.76;54276.34;5046659;28;20119;-70
2023/04/22 10:11:45;;;;;;;12.98;6.20;;;;;;;-144.73;42.40;54231.19;5028201;28;20083;-70
2023/04/22 10:14:12;;;;;;;15.45;6.13;;;;;;;-144.73;43.21;54243.50;5046655;28;20036;-70
2023/04/22 10:16:40;;;;;;;11.35;5.90;;;;;;;-144.73;42.78;54206.56;5045125;28;20024;-70
2023/04/22 10:19:12;;;;;;;16.33;5.75;;;;;;;-144.73;42.59;54231.19;5030589;28;20100;-70
2023/04/22 10:21:40;;;;;;;11.35;5.25;;;;;;;-144.73;41.16;54202.44;5034378;28;20063;-71
2023/04/22 10:24:06;;;;;;;16.48;5.97;;;;;;;-144.73;40.73;54251.72;5028239;28;20017;-70
2023/04/22 10:26:39;;;;;;;12.90;4.93;;;;;;;-144.73;40.77;54243.50;5028894;28;20426;-70
2023/04/22 10:29:06;;;;;;;10.05;4.72;;;;;;;-144.73;39.75;54255.81;5053409;28;20078;-70
2023/04/22 10:31:32;;;;;;;11.98;5.80;;;;;;;-144.73;40.61;54235.28;5052019;28;20056;-69
2023/04/22 10:34:14;;;;;;;13.13;5.10;;;;;;;-144.73;41.37;54227.09;5028037;28;20021;-69
2023/04/22 10:37:06;;;;;;;8.63;4.95;;;;;;;-144.73;41.30;54214.78;5042487;28;20098;-69
2023/04/22 10:39:32;;;;;;;11.63;4.90;;;;;;;-144.73;40.42;54243.50;5028497;28;20081;-69
2023/04/22 10:42:09;;;;;;;13.73;5.32;;;;;;;-144.73;39.92;54222.97;5044561;28;20017;-69
2023/04/22 10:44:47;;;;;;;9.18;5.05;;;;;;;-144.73;40.12;54208.63;5022378;28;20041;-70
2023/04/22 10:47:27;;;;;;;8.38;4.53;;;;;;;-144.73;40.78;54264.03;5025074;28;20052;-70
2023/04/22 10:50:15;;;;;;;8.57;4.87;;;;;;;-144.73;40.71;54206.56;5027046;28;20025;-69
2023/04/22 10:52:42;;;;;;;10.93;4.55;;;;;;;-144.73;40.56;54231.19;5042483;28;20032;-70
2023/04/22 10:55:08;;;;;;;9.98;4.93;;;;;;;-144.73;40.68;54222.97;5026401;28;20041;-70
2023/04/22 10:57:40;;;;;;;11.63;4.82;;;;;;;-144.73;40.00;54231.19;5033856;28;20021;-70
2023/04/22 11:00:15;;;;;;;10.98;4.30;;;;;;;-144.73;39.92;54222.97;5042246;28;20124;-70
2023/04/22 11:02:43;;;;;;;12.07;4.38;;;;;;;-144.73;39.16;54251.72;5023844;28;20083;-70
2023/04/22 11:05:25;;;;;;;12.52;4.38;;;;;;;-144.73;38.47;54247.59;5022957;28;20117;-70